<?xml version="1.0" encoding="UTF-8" standalone="no" ?><gpx xmlns="http://www.topografix.com/GPX/1/1" xmlns:gpxx="http://www.garmin.com/xmlschemas/GpxExtensions/v3" xmlns:gpxtrkx="http://www.garmin.com/xmlschemas/TrackStatsExtension/v1" xmlns:wptx1="http://www.garmin.com/xmlschemas/WaypointExtension/v1" xmlns:gpxtpx="http://www.garmin.com/xmlschemas/TrackPointExtension/v1" creator="Oregon 700" version="1.1" xmlns:xsi="http://www.w3.org/2001/XMLSchema-instance" xsi:schemaLocation="http://www.topografix.com/GPX/1/1 http://www.topografix.com/GPX/1/1/gpx.xsd http://www.garmin.com/xmlschemas/GpxExtensions/v3 http://www8.garmin.com/xmlschemas/GpxExtensionsv3.xsd http://www.garmin.com/xmlschemas/TrackStatsExtension/v1 http://www8.garmin.com/xmlschemas/TrackStatsExtension.xsd http://www.garmin.com/xmlschemas/WaypointExtension/v1 http://www8.garmin.com/xmlschemas/WaypointExtensionv1.xsd http://www.garmin.com/xmlschemas/TrackPointExtension/v1 http://www.garmin.com/xmlschemas/TrackPointExtensionv1.xsd"><metadata><link href="http://www.garmin.com"><text>Garmin International</text></link><time>2023-02-08T16:27:31Z</time></metadata><trk><name>Current Track: 08 FEB 2023 10:07</name><extensions><gpxx:TrackExtension><gpxx:DisplayColor>Cyan</gpxx:DisplayColor></gpxx:TrackExtension><gpxtrkx:TrackStatsExtension><gpxtrkx:Distance>5951.000</gpxtrkx:Distance><gpxtrkx:TimerTime>10711</gpxtrkx:TimerTime><gpxtrkx:TotalElapsedTime>22796</gpxtrkx:TotalElapsedTime><gpxtrkx:MovingTime>8121</gpxtrkx:MovingTime><gpxtrkx:StoppedTime>2591</gpxtrkx:StoppedTime><gpxtrkx:MovingSpeed>0.733</gpxtrkx:MovingSpeed><gpxtrkx:MaxSpeed>1.508</gpxtrkx:MaxSpeed><gpxtrkx:MaxElevation>0.000</gpxtrkx:MaxElevation><gpxtrkx:MinElevation>-114.201</gpxtrkx:MinElevation><gpxtrkx:Ascent>188.000</gpxtrkx:Ascent><gpxtrkx:Descent>166.606</gpxtrkx:Descent><gpxtrkx:AvgAscentRate>0.057</gpxtrkx:AvgAscentRate><gpxtrkx:MaxAscentRate>0.149</gpxtrkx:MaxAscentRate><gpxtrkx:AvgDescentRate>0.049</gpxtrkx:AvgDescentRate><gpxtrkx:MaxDescentRate>-0.103</gpxtrkx:MaxDescentRate><gpxtrkx:Calories>262</gpxtrkx:Calories></gpxtrkx:TrackStatsExtension></extensions><trkseg><trkpt lat="51.7419859953" lon="-2.0067933295"><ele>-114.70</ele><time>2023-02-08T10:07:35Z</time></trkpt><trkpt lat="51.7420072015" lon="-2.0067631546"><ele>-113.31</ele><time>2023-02-08T10:08:05Z</time></trkpt><trkpt lat="51.7419865821" lon="-2.0067802537"><ele>-114.34</ele><time>2023-02-08T10:08:26Z</time></trkpt><trkpt lat="51.7419022601" lon="-2.0069219917"><ele>-113.20</ele><time>2023-02-08T10:08:43Z</time></trkpt><trkpt lat="51.7418108135" lon="-2.0070493966"><ele>-111.86</ele><time>2023-02-08T10:08:57Z</time></trkpt><trkpt lat="51.7416651361" lon="-2.0072235726"><ele>-110.18</ele><time>2023-02-08T10:09:12Z</time></trkpt><trkpt lat="51.7416000087" lon="-2.0073113311"><ele>-109.76</ele><time>2023-02-08T10:09:18Z</time></trkpt><trkpt lat="51.7414494697" lon="-2.0074061304"><ele>-107.81</ele><time>2023-02-08T10:09:35Z</time></trkpt><trkpt lat="51.7413344700" lon="-2.0075958129"><ele>-106.13</ele><time>2023-02-08T10:09:50Z</time></trkpt><trkpt lat="51.7413147725" lon="-2.0077518001"><ele>-104.97</ele><time>2023-02-08T10:10:06Z</time></trkpt><trkpt lat="51.7413856834" lon="-2.0079195220"><ele>-104.26</ele><time>2023-02-08T10:10:23Z</time></trkpt><trkpt lat="51.7414641380" lon="-2.0080492739"><ele>-104.23</ele><time>2023-02-08T10:10:42Z</time></trkpt><trkpt lat="51.7414647248" lon="-2.0080155786"><ele>-101.64</ele><time>2023-02-08T10:11:01Z</time></trkpt><trkpt lat="51.7414755374" lon="-2.0080211107"><ele>-103.67</ele><time>2023-02-08T10:11:28Z</time></trkpt><trkpt lat="51.7414870206" lon="-2.0080772694"><ele>-104.14</ele><time>2023-02-08T10:11:50Z</time></trkpt><trkpt lat="51.7415183689" lon="-2.0080809575"><ele>-103.91</ele><time>2023-02-08T10:12:04Z</time></trkpt><trkpt lat="51.7415698338" lon="-2.0082410518"><ele>-104.18</ele><time>2023-02-08T10:12:20Z</time></trkpt><trkpt lat="51.7415838316" lon="-2.0082679577"><ele>-108.10</ele><time>2023-02-08T10:12:22Z</time></trkpt><trkpt lat="51.7416693270" lon="-2.0083916746"><ele>-103.85</ele><time>2023-02-08T10:12:32Z</time></trkpt><trkpt lat="51.7416875158" lon="-2.0084196702"><ele>-99.40</ele><time>2023-02-08T10:12:34Z</time></trkpt><trkpt lat="51.7417134997" lon="-2.0084567182"><ele>-97.23</ele><time>2023-02-08T10:12:37Z</time></trkpt><trkpt lat="51.7417586781" lon="-2.0085181575"><ele>-100.65</ele><time>2023-02-08T10:12:42Z</time></trkpt><trkpt lat="51.7419419065" lon="-2.0088106859"><ele>-102.30</ele><time>2023-02-08T10:13:02Z</time></trkpt><trkpt lat="51.7421414796" lon="-2.0091241691"><ele>-101.71</ele><time>2023-02-08T10:13:24Z</time></trkpt><trkpt lat="51.7423257977" lon="-2.0093882829"><ele>-101.12</ele><time>2023-02-08T10:13:42Z</time></trkpt><trkpt lat="51.7425022367" lon="-2.0096720103"><ele>-100.40</ele><time>2023-02-08T10:14:04Z</time></trkpt><trkpt lat="51.7426689528" lon="-2.0099357888"><ele>-99.21</ele><time>2023-02-08T10:14:24Z</time></trkpt><trkpt lat="51.7428277899" lon="-2.0102079492"><ele>-98.32</ele><time>2023-02-08T10:14:42Z</time></trkpt><trkpt lat="51.7429562006" lon="-2.0104259625"><ele>-97.97</ele><time>2023-02-08T10:15:01Z</time></trkpt><trkpt lat="51.7429871298" lon="-2.0104904193"><ele>-97.91</ele><time>2023-02-08T10:15:27Z</time></trkpt><trkpt lat="51.7430118565" lon="-2.0105744060"><ele>-97.92</ele><time>2023-02-08T10:15:53Z</time></trkpt><trkpt lat="51.7430964299" lon="-2.0107322372"><ele>-97.71</ele><time>2023-02-08T10:16:14Z</time></trkpt><trkpt lat="51.7431621440" lon="-2.0108530205"><ele>-97.63</ele><time>2023-02-08T10:16:31Z</time></trkpt><trkpt lat="51.7432690971" lon="-2.0110260230"><ele>-98.04</ele><time>2023-02-08T10:16:50Z</time></trkpt><trkpt lat="51.7433732841" lon="-2.0111830998"><ele>-98.70</ele><time>2023-02-08T10:17:09Z</time></trkpt><trkpt lat="51.7434522416" lon="-2.0112697687"><ele>-99.91</ele><time>2023-02-08T10:17:30Z</time></trkpt><trkpt lat="51.7434964981" lon="-2.0113194734"><ele>-100.42</ele><time>2023-02-08T10:17:48Z</time></trkpt><trkpt lat="51.7435822450" lon="-2.0113795716"><ele>-101.39</ele><time>2023-02-08T10:18:10Z</time></trkpt><trkpt lat="51.7436580174" lon="-2.0114495605"><ele>-103.07</ele><time>2023-02-08T10:18:31Z</time></trkpt><trkpt lat="51.7437775433" lon="-2.0115358103"><ele>-103.77</ele><time>2023-02-08T10:18:50Z</time></trkpt><trkpt lat="51.7438175250" lon="-2.0115643926"><ele>-104.31</ele><time>2023-02-08T10:19:11Z</time></trkpt><trkpt lat="51.7438391503" lon="-2.0115934778"><ele>-104.55</ele><time>2023-02-08T10:19:28Z</time></trkpt><trkpt lat="51.7438417487" lon="-2.0116177853"><ele>-102.65</ele><time>2023-02-08T10:19:43Z</time></trkpt><trkpt lat="51.7438467778" lon="-2.0116048772"><ele>-104.15</ele><time>2023-02-08T10:20:07Z</time></trkpt><trkpt lat="51.7438405752" lon="-2.0115964115"><ele>-107.76</ele><time>2023-02-08T10:20:13Z</time></trkpt><trkpt lat="51.7438441794" lon="-2.0116000995"><ele>-109.31</ele><time>2023-02-08T10:20:16Z</time></trkpt><trkpt lat="51.7438467778" lon="-2.0115996804"><ele>-105.95</ele><time>2023-02-08T10:20:18Z</time></trkpt><trkpt lat="51.7438769527" lon="-2.0116220601"><ele>-106.42</ele><time>2023-02-08T10:20:25Z</time></trkpt><trkpt lat="51.7438917886" lon="-2.0116262510"><ele>-102.34</ele><time>2023-02-08T10:20:27Z</time></trkpt><trkpt lat="51.7439084686" lon="-2.0116379857"><ele>-100.58</ele><time>2023-02-08T10:20:30Z</time></trkpt><trkpt lat="51.7439303454" lon="-2.0116516482"><ele>-103.64</ele><time>2023-02-08T10:20:37Z</time></trkpt><trkpt lat="51.7441065330" lon="-2.0117312763"><ele>-105.38</ele><time>2023-02-08T10:20:59Z</time></trkpt><trkpt lat="51.7441717442" lon="-2.0118310209"><ele>-105.25</ele><time>2023-02-08T10:21:20Z</time></trkpt><trkpt lat="51.7441682238" lon="-2.0118598547"><ele>-105.05</ele><time>2023-02-08T10:21:45Z</time></trkpt><trkpt lat="51.7441770248" lon="-2.0118761156"><ele>-104.97</ele><time>2023-02-08T10:22:10Z</time></trkpt><trkpt lat="51.7441805452" lon="-2.0119923726"><ele>-104.03</ele><time>2023-02-08T10:22:26Z</time></trkpt><trkpt lat="51.7442761827" lon="-2.0121016726"><ele>-101.94</ele><time>2023-02-08T10:22:44Z</time></trkpt><trkpt lat="51.7443547212" lon="-2.0121709909"><ele>-106.13</ele><time>2023-02-08T10:23:03Z</time></trkpt><trkpt lat="51.7443643603" lon="-2.0121740084"><ele>-100.79</ele><time>2023-02-08T10:23:11Z</time></trkpt><trkpt lat="51.7443802860" lon="-2.0122023392"><ele>-101.37</ele><time>2023-02-08T10:23:34Z</time></trkpt><trkpt lat="51.7444694694" lon="-2.0123157464"><ele>-101.95</ele><time>2023-02-08T10:23:52Z</time></trkpt><trkpt lat="51.7445786018" lon="-2.0123666245"><ele>-101.74</ele><time>2023-02-08T10:24:08Z</time></trkpt><trkpt lat="51.7447302304" lon="-2.0124512818"><ele>-101.62</ele><time>2023-02-08T10:24:28Z</time></trkpt><trkpt lat="51.7448615748" lon="-2.0125001483"><ele>-101.59</ele><time>2023-02-08T10:24:47Z</time></trkpt><trkpt lat="51.7449836992" lon="-2.0126057602"><ele>-101.35</ele><time>2023-02-08T10:25:06Z</time></trkpt><trkpt lat="51.7450479046" lon="-2.0126685407"><ele>-100.93</ele><time>2023-02-08T10:25:23Z</time></trkpt><trkpt lat="51.7451592162" lon="-2.0127794333"><ele>-101.78</ele><time>2023-02-08T10:25:43Z</time></trkpt><trkpt lat="51.7451701965" lon="-2.0128044952"><ele>-101.90</ele><time>2023-02-08T10:26:08Z</time></trkpt><trkpt lat="51.7452358268" lon="-2.0128500927"><ele>-101.23</ele><time>2023-02-08T10:26:28Z</time></trkpt><trkpt lat="51.7453198973" lon="-2.0129527710"><ele>-101.83</ele><time>2023-02-08T10:26:50Z</time></trkpt><trkpt lat="51.7453466356" lon="-2.0129560400"><ele>-101.83</ele><time>2023-02-08T10:27:16Z</time></trkpt><trkpt lat="51.7453670874" lon="-2.0129705407"><ele>-101.83</ele><time>2023-02-08T10:27:39Z</time></trkpt><trkpt lat="51.7454172112" lon="-2.0130324829"><ele>-101.83</ele><time>2023-02-08T10:27:58Z</time></trkpt><trkpt lat="51.7454591207" lon="-2.0130992867"><ele>-101.83</ele><time>2023-02-08T10:28:27Z</time></trkpt><trkpt lat="51.7455721926" lon="-2.0132471435"><ele>-101.83</ele><time>2023-02-08T10:28:49Z</time></trkpt><trkpt lat="51.7456748709" lon="-2.0133595448"><ele>-101.83</ele><time>2023-02-08T10:29:12Z</time></trkpt><trkpt lat="51.7457355559" lon="-2.0134048071"><ele>-101.83</ele><time>2023-02-08T10:29:31Z</time></trkpt><trkpt lat="51.7457932234" lon="-2.0134570263"><ele>-97.98</ele><time>2023-02-08T10:29:44Z</time></trkpt><trkpt lat="51.7457985040" lon="-2.0134627260"><ele>-98.05</ele><time>2023-02-08T10:29:45Z</time></trkpt><trkpt lat="51.7459052056" lon="-2.0135766361"><ele>-97.58</ele><time>2023-02-08T10:30:05Z</time></trkpt><trkpt lat="51.7460070457" lon="-2.0136926416"><ele>-97.10</ele><time>2023-02-08T10:30:26Z</time></trkpt><trkpt lat="51.7460600194" lon="-2.0137792267"><ele>-97.10</ele><time>2023-02-08T10:30:45Z</time></trkpt><trkpt lat="51.7460666411" lon="-2.0138008520"><ele>-96.85</ele><time>2023-02-08T10:31:10Z</time></trkpt><trkpt lat="51.7460669763" lon="-2.0138316136"><ele>-96.90</ele><time>2023-02-08T10:31:34Z</time></trkpt><trkpt lat="51.7461114842" lon="-2.0139030274"><ele>-96.84</ele><time>2023-02-08T10:31:53Z</time></trkpt><trkpt lat="51.7461595964" lon="-2.0139643829"><ele>-96.65</ele><time>2023-02-08T10:32:16Z</time></trkpt><trkpt lat="51.7462361231" lon="-2.0140695758"><ele>-97.17</ele><time>2023-02-08T10:32:32Z</time></trkpt><trkpt lat="51.7463272344" lon="-2.0141813066"><ele>-97.86</ele><time>2023-02-08T10:32:54Z</time></trkpt><trkpt lat="51.7463992350" lon="-2.0142892655"><ele>-98.60</ele><time>2023-02-08T10:33:15Z</time></trkpt><trkpt lat="51.7464341037" lon="-2.0143188536"><ele>-98.33</ele><time>2023-02-08T10:33:43Z</time></trkpt><trkpt lat="51.7465190124" lon="-2.0143890940"><ele>-99.79</ele><time>2023-02-08T10:34:00Z</time></trkpt><trkpt lat="51.7466114648" lon="-2.0145129785"><ele>-101.24</ele><time>2023-02-08T10:34:20Z</time></trkpt><trkpt lat="51.7467103712" lon="-2.0146035030"><ele>-102.33</ele><time>2023-02-08T10:34:40Z</time></trkpt><trkpt lat="51.7468319926" lon="-2.0147143118"><ele>-102.55</ele><time>2023-02-08T10:34:59Z</time></trkpt><trkpt lat="51.7468526121" lon="-2.0147479232"><ele>-102.13</ele><time>2023-02-08T10:35:18Z</time></trkpt><trkpt lat="51.7468742374" lon="-2.0147660282"><ele>-102.48</ele><time>2023-02-08T10:35:51Z</time></trkpt><trkpt lat="51.7469189968" lon="-2.0146812871"><ele>-102.48</ele><time>2023-02-08T10:36:08Z</time></trkpt><trkpt lat="51.7469118722" lon="-2.0143883396"><ele>-102.48</ele><time>2023-02-08T10:36:30Z</time></trkpt><trkpt lat="51.7469296418" lon="-2.0141769480"><ele>-102.48</ele><time>2023-02-08T10:36:48Z</time></trkpt><trkpt lat="51.7469354253" lon="-2.0141636208"><ele>-102.48</ele><time>2023-02-08T10:37:14Z</time></trkpt><trkpt lat="51.7470033187" lon="-2.0141161792"><ele>-102.48</ele><time>2023-02-08T10:37:33Z</time></trkpt><trkpt lat="51.7470185738" lon="-2.0140957274"><ele>-102.48</ele><time>2023-02-08T10:37:55Z</time></trkpt><trkpt lat="51.7469983734" lon="-2.0140710007"><ele>-102.48</ele><time>2023-02-08T10:38:20Z</time></trkpt><trkpt lat="51.7470578011" lon="-2.0139155164"><ele>-102.48</ele><time>2023-02-08T10:38:39Z</time></trkpt><trkpt lat="51.7471972760" lon="-2.0137521531"><ele>-103.85</ele><time>2023-02-08T10:38:57Z</time></trkpt><trkpt lat="51.7473000381" lon="-2.0136175398"><ele>-103.84</ele><time>2023-02-08T10:39:14Z</time></trkpt><trkpt lat="51.7474816740" lon="-2.0135457907"><ele>-102.60</ele><time>2023-02-08T10:39:35Z</time></trkpt><trkpt lat="51.7476498149" lon="-2.0135770552"><ele>-101.64</ele><time>2023-02-08T10:39:55Z</time></trkpt><trkpt lat="51.7477124278" lon="-2.0135837607"><ele>-100.90</ele><time>2023-02-08T10:40:14Z</time></trkpt><trkpt lat="51.7477597017" lon="-2.0135727804"><ele>-100.28</ele><time>2023-02-08T10:40:26Z</time></trkpt><trkpt lat="51.7478887830" lon="-2.0135918912"><ele>-99.81</ele><time>2023-02-08T10:40:45Z</time></trkpt><trkpt lat="51.7480298504" lon="-2.0135942381"><ele>-98.27</ele><time>2023-02-08T10:41:03Z</time></trkpt><trkpt lat="51.7480793037" lon="-2.0135754626"><ele>-96.70</ele><time>2023-02-08T10:41:24Z</time></trkpt><trkpt lat="51.7481318582" lon="-2.0135742892"><ele>-95.58</ele><time>2023-02-08T10:41:39Z</time></trkpt><trkpt lat="51.7482217122" lon="-2.0135289431"><ele>-93.37</ele><time>2023-02-08T10:42:01Z</time></trkpt><trkpt lat="51.7482592631" lon="-2.0135162026"><ele>-92.16</ele><time>2023-02-08T10:42:31Z</time></trkpt><trkpt lat="51.7482540663" lon="-2.0135358162"><ele>-92.08</ele><time>2023-02-08T10:43:00Z</time></trkpt><trkpt lat="51.7482679803" lon="-2.0134976786"><ele>-92.21</ele><time>2023-02-08T10:43:36Z</time></trkpt><trkpt lat="51.7483681440" lon="-2.0134449564"><ele>-92.21</ele><time>2023-02-08T10:43:58Z</time></trkpt><trkpt lat="51.7484320980" lon="-2.0134077407"><ele>-88.80</ele><time>2023-02-08T10:44:14Z</time></trkpt><trkpt lat="51.7484321818" lon="-2.0134061482"><ele>-88.78</ele><time>2023-02-08T10:44:15Z</time></trkpt><trkpt lat="51.7484591715" lon="-2.0133811701"><ele>-88.24</ele><time>2023-02-08T10:44:37Z</time></trkpt><trkpt lat="51.7486097943" lon="-2.0133369137"><ele>-86.47</ele><time>2023-02-08T10:45:00Z</time></trkpt><trkpt lat="51.7487003189" lon="-2.0132986922"><ele>-85.15</ele><time>2023-02-08T10:45:22Z</time></trkpt><trkpt lat="51.7488190904" lon="-2.0132762287"><ele>-83.51</ele><time>2023-02-08T10:45:45Z</time></trkpt><trkpt lat="51.7489335872" lon="-2.0132238418"><ele>-81.80</ele><time>2023-02-08T10:46:07Z</time></trkpt><trkpt lat="51.7489428073" lon="-2.0132380910"><ele>-81.49</ele><time>2023-02-08T10:46:29Z</time></trkpt><trkpt lat="51.7490158137" lon="-2.0132016297"><ele>-80.86</ele><time>2023-02-08T10:46:52Z</time></trkpt><trkpt lat="51.7491882294" lon="-2.0132333972"><ele>-79.35</ele><time>2023-02-08T10:47:14Z</time></trkpt><trkpt lat="51.7493529338" lon="-2.0132662542"><ele>-78.30</ele><time>2023-02-08T10:47:34Z</time></trkpt><trkpt lat="51.7494985275" lon="-2.0133250114"><ele>-77.02</ele><time>2023-02-08T10:47:55Z</time></trkpt><trkpt lat="51.7496431153" lon="-2.0134538412"><ele>-76.25</ele><time>2023-02-08T10:48:17Z</time></trkpt><trkpt lat="51.7497804109" lon="-2.0136120915"><ele>-75.53</ele><time>2023-02-08T10:48:38Z</time></trkpt><trkpt lat="51.7499366496" lon="-2.0138010196"><ele>-74.77</ele><time>2023-02-08T10:49:04Z</time></trkpt><trkpt lat="51.7501047067" lon="-2.0140067115"><ele>-73.75</ele><time>2023-02-08T10:49:33Z</time></trkpt><trkpt lat="51.7502408288" lon="-2.0141609386"><ele>-73.34</ele><time>2023-02-08T10:49:53Z</time></trkpt><trkpt lat="51.7503646296" lon="-2.0143381320"><ele>-73.01</ele><time>2023-02-08T10:50:17Z</time></trkpt><trkpt lat="51.7505186889" lon="-2.0145468414"><ele>-72.95</ele><time>2023-02-08T10:50:43Z</time></trkpt><trkpt lat="51.7506445851" lon="-2.0148217678"><ele>-73.71</ele><time>2023-02-08T10:51:11Z</time></trkpt><trkpt lat="51.7507128976" lon="-2.0150752366"><ele>-73.53</ele><time>2023-02-08T10:51:36Z</time></trkpt><trkpt lat="51.7507465091" lon="-2.0153366681"><ele>-73.13</ele><time>2023-02-08T10:51:57Z</time></trkpt><trkpt lat="51.7507814616" lon="-2.0155807491"><ele>-73.04</ele><time>2023-02-08T10:52:17Z</time></trkpt><trkpt lat="51.7508141510" lon="-2.0158087369"><ele>-73.52</ele><time>2023-02-08T10:52:37Z</time></trkpt><trkpt lat="51.7508697230" lon="-2.0161340386"><ele>-74.35</ele><time>2023-02-08T10:53:04Z</time></trkpt><trkpt lat="51.7509155720" lon="-2.0163988229"><ele>-75.00</ele><time>2023-02-08T10:53:28Z</time></trkpt><trkpt lat="51.7509672884" lon="-2.0166382100"><ele>-75.40</ele><time>2023-02-08T10:53:49Z</time></trkpt><trkpt lat="51.7510514427" lon="-2.0169185847"><ele>-76.44</ele><time>2023-02-08T10:54:13Z</time></trkpt><trkpt lat="51.7510984652" lon="-2.0170759130"><ele>-77.64</ele><time>2023-02-08T10:54:34Z</time></trkpt><trkpt lat="51.7511697114" lon="-2.0173076726"><ele>-78.23</ele><time>2023-02-08T10:54:56Z</time></trkpt><trkpt lat="51.7512240261" lon="-2.0174845308"><ele>-78.44</ele><time>2023-02-08T10:55:16Z</time></trkpt><trkpt lat="51.7512857169" lon="-2.0177482255"><ele>-77.65</ele><time>2023-02-08T10:55:41Z</time></trkpt><trkpt lat="51.7513427977" lon="-2.0179808233"><ele>-77.10</ele><time>2023-02-08T10:56:04Z</time></trkpt><trkpt lat="51.7514023930" lon="-2.0182229765"><ele>-76.74</ele><time>2023-02-08T10:56:28Z</time></trkpt><trkpt lat="51.7515115254" lon="-2.0184782892"><ele>-76.50</ele><time>2023-02-08T10:56:53Z</time></trkpt><trkpt lat="51.7515901476" lon="-2.0186904352"><ele>-76.44</ele><time>2023-02-08T10:57:12Z</time></trkpt><trkpt lat="51.7516820133" lon="-2.0188956242"><ele>-76.40</ele><time>2023-02-08T10:57:32Z</time></trkpt><trkpt lat="51.7518032994" lon="-2.0191143919"><ele>-76.40</ele><time>2023-02-08T10:57:57Z</time></trkpt><trkpt lat="51.7518625595" lon="-2.0193289686"><ele>-76.40</ele><time>2023-02-08T10:58:22Z</time></trkpt><trkpt lat="51.7520036269" lon="-2.0192871429"><ele>-76.40</ele><time>2023-02-08T10:58:46Z</time></trkpt><trkpt lat="51.7520934809" lon="-2.0192434732"><ele>-76.40</ele><time>2023-02-08T10:59:12Z</time></trkpt><trkpt lat="51.7521141004" lon="-2.0192659367"><ele>-76.40</ele><time>2023-02-08T10:59:34Z</time></trkpt><trkpt lat="51.7521291040" lon="-2.0193024818"><ele>-76.40</ele><time>2023-02-08T10:59:59Z</time></trkpt><trkpt lat="51.7521180399" lon="-2.0192790125"><ele>-76.40</ele><time>2023-02-08T11:00:23Z</time></trkpt><trkpt lat="51.7521031201" lon="-2.0192582253"><ele>-76.40</ele><time>2023-02-08T11:00:48Z</time></trkpt><trkpt lat="51.7521023657" lon="-2.0192656014"><ele>-76.40</ele><time>2023-02-08T11:01:10Z</time></trkpt><trkpt lat="51.7520877812" lon="-2.0192559622"><ele>-76.40</ele><time>2023-02-08T11:01:38Z</time></trkpt><trkpt lat="51.7520931456" lon="-2.0192325767"><ele>-76.40</ele><time>2023-02-08T11:02:05Z</time></trkpt><trkpt lat="51.7521063052" lon="-2.0191977918"><ele>-76.40</ele><time>2023-02-08T11:02:34Z</time></trkpt><trkpt lat="51.7521062214" lon="-2.0192127116"><ele>-76.40</ele><time>2023-02-08T11:03:01Z</time></trkpt><trkpt lat="51.7520724423" lon="-2.0191152301"><ele>-76.40</ele><time>2023-02-08T11:03:23Z</time></trkpt><trkpt lat="51.7520788126" lon="-2.0191418007"><ele>-72.60</ele><time>2023-02-08T11:03:34Z</time></trkpt><trkpt lat="51.7520799022" lon="-2.0191460755"><ele>-72.63</ele><time>2023-02-08T11:03:35Z</time></trkpt><trkpt lat="51.7520838417" lon="-2.0192019828"><ele>-74.05</ele><time>2023-02-08T11:04:03Z</time></trkpt><trkpt lat="51.7520957440" lon="-2.0192101970"><ele>-77.07</ele><time>2023-02-08T11:04:31Z</time></trkpt><trkpt lat="51.7520992644" lon="-2.0191949420"><ele>-72.90</ele><time>2023-02-08T11:04:37Z</time></trkpt><trkpt lat="51.7521018628" lon="-2.0191972889"><ele>-73.65</ele><time>2023-02-08T11:04:46Z</time></trkpt><trkpt lat="51.7520775553" lon="-2.0192201715"><ele>-74.62</ele><time>2023-02-08T11:05:12Z</time></trkpt><trkpt lat="51.7520707659" lon="-2.0192245301"><ele>-74.36</ele><time>2023-02-08T11:05:46Z</time></trkpt><trkpt lat="51.7520501465" lon="-2.0192325767"><ele>-74.37</ele><time>2023-02-08T11:06:28Z</time></trkpt><trkpt lat="51.7520654853" lon="-2.0192537829"><ele>-75.58</ele><time>2023-02-08T11:06:47Z</time></trkpt><trkpt lat="51.7520859372" lon="-2.0192319062"><ele>-75.48</ele><time>2023-02-08T11:07:20Z</time></trkpt><trkpt lat="51.7521039583" lon="-2.0192269608"><ele>-75.61</ele><time>2023-02-08T11:08:03Z</time></trkpt><trkpt lat="51.7521093227" lon="-2.0192215126"><ele>-75.61</ele><time>2023-02-08T11:08:48Z</time></trkpt><trkpt lat="51.7521171179" lon="-2.0192242786"><ele>-75.61</ele><time>2023-02-08T11:09:34Z</time></trkpt><trkpt lat="51.7521366477" lon="-2.0192334987"><ele>-75.61</ele><time>2023-02-08T11:10:11Z</time></trkpt><trkpt lat="51.7521251645" lon="-2.0192474965"><ele>-75.61</ele><time>2023-02-08T11:10:39Z</time></trkpt><trkpt lat="51.7521112505" lon="-2.0192358457"><ele>-75.61</ele><time>2023-02-08T11:11:06Z</time></trkpt><trkpt lat="51.7521243263" lon="-2.0192167349"><ele>-75.61</ele><time>2023-02-08T11:11:32Z</time></trkpt><trkpt lat="51.7520986777" lon="-2.0192062575"><ele>-75.61</ele><time>2023-02-08T11:11:58Z</time></trkpt><trkpt lat="51.7521048803" lon="-2.0192338340"><ele>-75.61</ele><time>2023-02-08T11:12:33Z</time></trkpt><trkpt lat="51.7521104962" lon="-2.0192576386"><ele>-75.61</ele><time>2023-02-08T11:12:59Z</time></trkpt><trkpt lat="51.7520858534" lon="-2.0192505978"><ele>-75.61</ele><time>2023-02-08T11:13:25Z</time></trkpt><trkpt lat="51.7520560976" lon="-2.0192374382"><ele>-75.61</ele><time>2023-02-08T11:13:51Z</time></trkpt><trkpt lat="51.7520365678" lon="-2.0192470774"><ele>-75.61</ele><time>2023-02-08T11:14:18Z</time></trkpt><trkpt lat="51.7520581093" lon="-2.0192747377"><ele>-75.61</ele><time>2023-02-08T11:14:41Z</time></trkpt><trkpt lat="51.7520554271" lon="-2.0193219278"><ele>-75.61</ele><time>2023-02-08T11:15:04Z</time></trkpt><trkpt lat="51.7520766333" lon="-2.0192687027"><ele>-75.61</ele><time>2023-02-08T11:15:30Z</time></trkpt><trkpt lat="51.7520763818" lon="-2.0192973688"><ele>-75.61</ele><time>2023-02-08T11:16:07Z</time></trkpt><trkpt lat="51.7519540060" lon="-2.0193825290"><ele>-75.61</ele><time>2023-02-08T11:16:27Z</time></trkpt><trkpt lat="51.7518707737" lon="-2.0194888953"><ele>-75.61</ele><time>2023-02-08T11:16:44Z</time></trkpt><trkpt lat="51.7518825922" lon="-2.0195117779"><ele>-80.43</ele><time>2023-02-08T11:16:47Z</time></trkpt><trkpt lat="51.7518851906" lon="-2.0195213333"><ele>-80.44</ele><time>2023-02-08T11:16:48Z</time></trkpt><trkpt lat="51.7519037984" lon="-2.0196186472"><ele>-81.81</ele><time>2023-02-08T11:17:08Z</time></trkpt><trkpt lat="51.7519547604" lon="-2.0197298750"><ele>-81.78</ele><time>2023-02-08T11:17:24Z</time></trkpt><trkpt lat="51.7519987654" lon="-2.0198764745"><ele>-82.66</ele><time>2023-02-08T11:17:46Z</time></trkpt><trkpt lat="51.7521229014" lon="-2.0200556796"><ele>-85.09</ele><time>2023-02-08T11:18:11Z</time></trkpt><trkpt lat="51.7522193771" lon="-2.0201887842"><ele>-86.99</ele><time>2023-02-08T11:18:32Z</time></trkpt><trkpt lat="51.7523601931" lon="-2.0203164406"><ele>-88.56</ele><time>2023-02-08T11:18:53Z</time></trkpt><trkpt lat="51.7524333671" lon="-2.0203342102"><ele>-90.01</ele><time>2023-02-08T11:19:09Z</time></trkpt><trkpt lat="51.7524749413" lon="-2.0203251578"><ele>-90.79</ele><time>2023-02-08T11:19:27Z</time></trkpt><trkpt lat="51.7525093909" lon="-2.0203123335"><ele>-91.39</ele><time>2023-02-08T11:19:48Z</time></trkpt><trkpt lat="51.7525736801" lon="-2.0203016046"><ele>-91.87</ele><time>2023-02-08T11:20:04Z</time></trkpt><trkpt lat="51.7525931261" lon="-2.0203668159"><ele>-92.29</ele><time>2023-02-08T11:20:25Z</time></trkpt><trkpt lat="51.7526133265" lon="-2.0204147603"><ele>-93.51</ele><time>2023-02-08T11:20:49Z</time></trkpt><trkpt lat="51.7526191939" lon="-2.0204136707"><ele>-92.76</ele><time>2023-02-08T11:21:14Z</time></trkpt><trkpt lat="51.7526103090" lon="-2.0205031894"><ele>-93.15</ele><time>2023-02-08T11:21:37Z</time></trkpt><trkpt lat="51.7525873426" lon="-2.0207658783"><ele>-94.12</ele><time>2023-02-08T11:21:56Z</time></trkpt><trkpt lat="51.7526114825" lon="-2.0209339354"><ele>-94.95</ele><time>2023-02-08T11:22:14Z</time></trkpt><trkpt lat="51.7526652105" lon="-2.0211250428"><ele>-95.37</ele><time>2023-02-08T11:22:32Z</time></trkpt><trkpt lat="51.7527150828" lon="-2.0211881585"><ele>-95.60</ele><time>2023-02-08T11:22:51Z</time></trkpt><trkpt lat="51.7527191900" lon="-2.0212106220"><ele>-95.84</ele><time>2023-02-08T11:23:13Z</time></trkpt><trkpt lat="51.7526977323" lon="-2.0212001447"><ele>-96.07</ele><time>2023-02-08T11:23:36Z</time></trkpt><trkpt lat="51.7526879255" lon="-2.0212420542"><ele>-95.41</ele><time>2023-02-08T11:23:54Z</time></trkpt><trkpt lat="51.7527355347" lon="-2.0212684572"><ele>-95.41</ele><time>2023-02-08T11:24:23Z</time></trkpt><trkpt lat="51.7527451739" lon="-2.0214152243"><ele>-95.41</ele><time>2023-02-08T11:24:45Z</time></trkpt><trkpt lat="51.7527092155" lon="-2.0215894002"><ele>-95.41</ele><time>2023-02-08T11:25:05Z</time></trkpt><trkpt lat="51.7526989896" lon="-2.0216502529"><ele>-95.41</ele><time>2023-02-08T11:25:31Z</time></trkpt><trkpt lat="51.7526706588" lon="-2.0216901507"><ele>-95.41</ele><time>2023-02-08T11:25:55Z</time></trkpt><trkpt lat="51.7527278233" lon="-2.0217722096"><ele>-95.41</ele><time>2023-02-08T11:26:20Z</time></trkpt><trkpt lat="51.7528373748" lon="-2.0218226686"><ele>-95.41</ele><time>2023-02-08T11:26:47Z</time></trkpt><trkpt lat="51.7529050168" lon="-2.0218655840"><ele>-90.43</ele><time>2023-02-08T11:26:57Z</time></trkpt><trkpt lat="51.7529066093" lon="-2.0218653325"><ele>-90.43</ele><time>2023-02-08T11:26:58Z</time></trkpt><trkpt lat="51.7529317550" lon="-2.0219313819"><ele>-89.94</ele><time>2023-02-08T11:27:21Z</time></trkpt><trkpt lat="51.7529979721" lon="-2.0220353175"><ele>-89.17</ele><time>2023-02-08T11:27:40Z</time></trkpt><trkpt lat="51.7530354392" lon="-2.0220603794"><ele>-88.79</ele><time>2023-02-08T11:28:03Z</time></trkpt><trkpt lat="51.7530926038" lon="-2.0221322961"><ele>-88.49</ele><time>2023-02-08T11:28:27Z</time></trkpt><trkpt lat="51.7531254608" lon="-2.0222399198"><ele>-87.58</ele><time>2023-02-08T11:29:03Z</time></trkpt><trkpt lat="51.7531372793" lon="-2.0222278498"><ele>-86.95</ele><time>2023-02-08T11:29:28Z</time></trkpt><trkpt lat="51.7531207670" lon="-2.0222088229"><ele>-87.06</ele><time>2023-02-08T11:30:04Z</time></trkpt><trkpt lat="51.7531066854" lon="-2.0221900474"><ele>-87.14</ele><time>2023-02-08T11:31:07Z</time></trkpt><trkpt lat="51.7530965433" lon="-2.0221449528"><ele>-87.14</ele><time>2023-02-08T11:31:59Z</time></trkpt><trkpt lat="51.7531078588" lon="-2.0221924782"><ele>-87.14</ele><time>2023-02-08T11:32:41Z</time></trkpt><trkpt lat="51.7531121336" lon="-2.0222018659"><ele>-87.14</ele><time>2023-02-08T11:33:04Z</time></trkpt><trkpt lat="51.7531597428" lon="-2.0223568473"><ele>-87.14</ele><time>2023-02-08T11:33:23Z</time></trkpt><trkpt lat="51.7532164045" lon="-2.0225828234"><ele>-87.14</ele><time>2023-02-08T11:33:37Z</time></trkpt><trkpt lat="51.7532267980" lon="-2.0226157643"><ele>-86.73</ele><time>2023-02-08T11:33:39Z</time></trkpt><trkpt lat="51.7532458249" lon="-2.0227295067"><ele>-82.52</ele><time>2023-02-08T11:33:47Z</time></trkpt><trkpt lat="51.7532366049" lon="-2.0228541456"><ele>-79.61</ele><time>2023-02-08T11:34:06Z</time></trkpt><trkpt lat="51.7531584855" lon="-2.0230481867"><ele>-78.07</ele><time>2023-02-08T11:34:26Z</time></trkpt><trkpt lat="51.7531505227" lon="-2.0234020706"><ele>-77.84</ele><time>2023-02-08T11:34:44Z</time></trkpt><trkpt lat="51.7531666998" lon="-2.0234386157"><ele>-77.98</ele><time>2023-02-08T11:34:46Z</time></trkpt><trkpt lat="51.7532357667" lon="-2.0235947706"><ele>-75.41</ele><time>2023-02-08T11:34:55Z</time></trkpt><trkpt lat="51.7533578072" lon="-2.0238431264"><ele>-74.38</ele><time>2023-02-08T11:35:11Z</time></trkpt><trkpt lat="51.7534565460" lon="-2.0240944996"><ele>-73.60</ele><time>2023-02-08T11:35:30Z</time></trkpt><trkpt lat="51.7535604816" lon="-2.0242929831"><ele>-72.68</ele><time>2023-02-08T11:35:50Z</time></trkpt><trkpt lat="51.7536380980" lon="-2.0245057996"><ele>-72.81</ele><time>2023-02-08T11:36:09Z</time></trkpt><trkpt lat="51.7537672631" lon="-2.0247230586"><ele>-72.63</ele><time>2023-02-08T11:36:29Z</time></trkpt><trkpt lat="51.7539110128" lon="-2.0249207038"><ele>-73.04</ele><time>2023-02-08T11:36:53Z</time></trkpt><trkpt lat="51.7540611327" lon="-2.0250895154"><ele>-73.04</ele><time>2023-02-08T11:37:13Z</time></trkpt><trkpt lat="51.7541978415" lon="-2.0251938701"><ele>-73.04</ele><time>2023-02-08T11:37:35Z</time></trkpt><trkpt lat="51.7542402539" lon="-2.0252400544"><ele>-73.04</ele><time>2023-02-08T11:37:48Z</time></trkpt><trkpt lat="51.7544162739" lon="-2.0253879111"><ele>-73.04</ele><time>2023-02-08T11:38:11Z</time></trkpt><trkpt lat="51.7545787152" lon="-2.0255279727"><ele>-73.04</ele><time>2023-02-08T11:38:32Z</time></trkpt><trkpt lat="51.7546637915" lon="-2.0255729835"><ele>-76.38</ele><time>2023-02-08T11:38:40Z</time></trkpt><trkpt lat="51.7546691559" lon="-2.0255730674"><ele>-76.25</ele><time>2023-02-08T11:38:41Z</time></trkpt><trkpt lat="51.7548190244" lon="-2.0256562997"><ele>-77.50</ele><time>2023-02-08T11:39:03Z</time></trkpt><trkpt lat="51.7550190166" lon="-2.0258022286"><ele>-78.56</ele><time>2023-02-08T11:39:24Z</time></trkpt><trkpt lat="51.7552099563" lon="-2.0259210840"><ele>-79.32</ele><time>2023-02-08T11:39:45Z</time></trkpt><trkpt lat="51.7553572264" lon="-2.0259878039"><ele>-79.66</ele><time>2023-02-08T11:40:04Z</time></trkpt><trkpt lat="51.7555243615" lon="-2.0260718744"><ele>-78.76</ele><time>2023-02-08T11:40:23Z</time></trkpt><trkpt lat="51.7556798458" lon="-2.0261513349"><ele>-77.02</ele><time>2023-02-08T11:40:44Z</time></trkpt><trkpt lat="51.7558288760" lon="-2.0262374170"><ele>-75.42</ele><time>2023-02-08T11:41:04Z</time></trkpt><trkpt lat="51.7559960112" lon="-2.0263654087"><ele>-74.30</ele><time>2023-02-08T11:41:26Z</time></trkpt><trkpt lat="51.7561198119" lon="-2.0264860243"><ele>-73.52</ele><time>2023-02-08T11:41:45Z</time></trkpt><trkpt lat="51.7562442832" lon="-2.0265884511"><ele>-73.36</ele><time>2023-02-08T11:42:08Z</time></trkpt><trkpt lat="51.7563704308" lon="-2.0266741142"><ele>-72.76</ele><time>2023-02-08T11:42:26Z</time></trkpt><trkpt lat="51.7565197963" lon="-2.0267249085"><ele>-73.43</ele><time>2023-02-08T11:42:42Z</time></trkpt><trkpt lat="51.7566996720" lon="-2.0267596096"><ele>-73.55</ele><time>2023-02-08T11:43:01Z</time></trkpt><trkpt lat="51.7568632867" lon="-2.0267436840"><ele>-73.85</ele><time>2023-02-08T11:43:21Z</time></trkpt><trkpt lat="51.7569595110" lon="-2.0266099088"><ele>-73.78</ele><time>2023-02-08T11:43:38Z</time></trkpt><trkpt lat="51.7570002470" lon="-2.0265413448"><ele>-74.30</ele><time>2023-02-08T11:43:57Z</time></trkpt><trkpt lat="51.7570586689" lon="-2.0264944900"><ele>-73.87</ele><time>2023-02-08T11:44:15Z</time></trkpt><trkpt lat="51.7571413983" lon="-2.0264411811"><ele>-76.04</ele><time>2023-02-08T11:44:34Z</time></trkpt><trkpt lat="51.7572220322" lon="-2.0265089907"><ele>-77.38</ele><time>2023-02-08T11:44:53Z</time></trkpt><trkpt lat="51.7573068570" lon="-2.0266117528"><ele>-79.57</ele><time>2023-02-08T11:45:13Z</time></trkpt><trkpt lat="51.7573589087" lon="-2.0266583562"><ele>-80.28</ele><time>2023-02-08T11:45:31Z</time></trkpt><trkpt lat="51.7574290652" lon="-2.0266827475"><ele>-81.05</ele><time>2023-02-08T11:45:55Z</time></trkpt><trkpt lat="51.7574578151" lon="-2.0266741142"><ele>-81.25</ele><time>2023-02-08T11:46:03Z</time></trkpt><trkpt lat="51.7575082742" lon="-2.0265885349"><ele>-81.34</ele><time>2023-02-08T11:46:23Z</time></trkpt><trkpt lat="51.7574933544" lon="-2.0264811628"><ele>-82.80</ele><time>2023-02-08T11:46:45Z</time></trkpt><trkpt lat="51.7574924324" lon="-2.0264743734"><ele>-82.52</ele><time>2023-02-08T11:46:46Z</time></trkpt><trkpt lat="51.7574294005" lon="-2.0263089985"><ele>-85.49</ele><time>2023-02-08T11:47:14Z</time></trkpt><trkpt lat="51.7575009819" lon="-2.0260521770"><ele>-86.86</ele><time>2023-02-08T11:47:37Z</time></trkpt><trkpt lat="51.7575162370" lon="-2.0258970279"><ele>-87.33</ele><time>2023-02-08T11:47:54Z</time></trkpt><trkpt lat="51.7576145567" lon="-2.0257692039"><ele>-88.24</ele><time>2023-02-08T11:48:14Z</time></trkpt><trkpt lat="51.7575397063" lon="-2.0258074254"><ele>-87.95</ele><time>2023-02-08T11:48:30Z</time></trkpt><trkpt lat="51.7574365251" lon="-2.0258397795"><ele>-87.67</ele><time>2023-02-08T11:48:46Z</time></trkpt><trkpt lat="51.7574086133" lon="-2.0258617401"><ele>-87.17</ele><time>2023-02-08T11:49:15Z</time></trkpt><trkpt lat="51.7574028298" lon="-2.0258993749"><ele>-87.17</ele><time>2023-02-08T11:49:29Z</time></trkpt><trkpt lat="51.7574267182" lon="-2.0259272866"><ele>-87.17</ele><time>2023-02-08T11:49:56Z</time></trkpt><trkpt lat="51.7573945317" lon="-2.0258641709"><ele>-87.17</ele><time>2023-02-08T11:50:21Z</time></trkpt><trkpt lat="51.7573864013" lon="-2.0258579683"><ele>-87.17</ele><time>2023-02-08T11:50:23Z</time></trkpt><trkpt lat="51.7572762631" lon="-2.0258376841"><ele>-87.17</ele><time>2023-02-08T11:50:41Z</time></trkpt><trkpt lat="51.7572174221" lon="-2.0258262847"><ele>-84.30</ele><time>2023-02-08T11:50:56Z</time></trkpt><trkpt lat="51.7571750097" lon="-2.0258134604"><ele>-82.82</ele><time>2023-02-08T11:51:14Z</time></trkpt><trkpt lat="51.7571276519" lon="-2.0258162264"><ele>-81.15</ele><time>2023-02-08T11:51:33Z</time></trkpt><trkpt lat="51.7570647039" lon="-2.0258002169"><ele>-79.79</ele><time>2023-02-08T11:52:01Z</time></trkpt><trkpt lat="51.7569930386" lon="-2.0257837046"><ele>-78.06</ele><time>2023-02-08T11:52:18Z</time></trkpt><trkpt lat="51.7569918651" lon="-2.0257681981"><ele>-77.47</ele><time>2023-02-08T11:52:39Z</time></trkpt><trkpt lat="51.7569820583" lon="-2.0257641748"><ele>-77.39</ele><time>2023-02-08T11:53:10Z</time></trkpt><trkpt lat="51.7569777835" lon="-2.0257682819"><ele>-77.49</ele><time>2023-02-08T11:53:33Z</time></trkpt><trkpt lat="51.7569780350" lon="-2.0257920865"><ele>-77.13</ele><time>2023-02-08T11:54:01Z</time></trkpt><trkpt lat="51.7569828965" lon="-2.0257780049"><ele>-77.13</ele><time>2023-02-08T11:54:30Z</time></trkpt><trkpt lat="51.7569393944" lon="-2.0257620793"><ele>-77.13</ele><time>2023-02-08T11:54:48Z</time></trkpt><trkpt lat="51.7568931263" lon="-2.0256927609"><ele>-77.13</ele><time>2023-02-08T11:54:55Z</time></trkpt><trkpt lat="51.7567960639" lon="-2.0255379472"><ele>-78.17</ele><time>2023-02-08T11:55:15Z</time></trkpt><trkpt lat="51.7567707505" lon="-2.0255319960"><ele>-78.97</ele><time>2023-02-08T11:55:31Z</time></trkpt><trkpt lat="51.7567677330" lon="-2.0255318284"><ele>-79.04</ele><time>2023-02-08T11:55:53Z</time></trkpt><trkpt lat="51.7567674816" lon="-2.0255159866"><ele>-79.06</ele><time>2023-02-08T11:56:31Z</time></trkpt><trkpt lat="51.7566964030" lon="-2.0255035814"><ele>-79.06</ele><time>2023-02-08T11:56:51Z</time></trkpt><trkpt lat="51.7565767933" lon="-2.0254817046"><ele>-79.06</ele><time>2023-02-08T11:57:08Z</time></trkpt><trkpt lat="51.7564870231" lon="-2.0254765917"><ele>-79.06</ele><time>2023-02-08T11:57:25Z</time></trkpt><trkpt lat="51.7563576065" lon="-2.0254318323"><ele>-79.06</ele><time>2023-02-08T11:57:45Z</time></trkpt><trkpt lat="51.7563199718" lon="-2.0254195109"><ele>-79.06</ele><time>2023-02-08T11:58:05Z</time></trkpt><trkpt lat="51.7563261744" lon="-2.0254188403"><ele>-79.06</ele><time>2023-02-08T11:58:36Z</time></trkpt><trkpt lat="51.7562089115" lon="-2.0253987238"><ele>-78.59</ele><time>2023-02-08T11:59:00Z</time></trkpt><trkpt lat="51.7560982704" lon="-2.0253778528"><ele>-79.30</ele><time>2023-02-08T11:59:17Z</time></trkpt><trkpt lat="51.7559244297" lon="-2.0253563952"><ele>-80.22</ele><time>2023-02-08T11:59:40Z</time></trkpt><trkpt lat="51.7558483221" lon="-2.0253646933"><ele>-80.73</ele><time>2023-02-08T11:59:57Z</time></trkpt><trkpt lat="51.7557209171" lon="-2.0253485162"><ele>-82.02</ele><time>2023-02-08T12:00:16Z</time></trkpt><trkpt lat="51.7556565441" lon="-2.0253505278"><ele>-83.43</ele><time>2023-02-08T12:00:35Z</time></trkpt><trkpt lat="51.7555866390" lon="-2.0253074449"><ele>-83.77</ele><time>2023-02-08T12:01:05Z</time></trkpt><trkpt lat="51.7554533668" lon="-2.0252900943"><ele>-85.16</ele><time>2023-02-08T12:01:24Z</time></trkpt><trkpt lat="51.7553140596" lon="-2.0252743363"><ele>-85.70</ele><time>2023-02-08T12:01:43Z</time></trkpt><trkpt lat="51.7552274745" lon="-2.0252621826"><ele>-86.02</ele><time>2023-02-08T12:01:59Z</time></trkpt><trkpt lat="51.7550962139" lon="-2.0252444968"><ele>-85.85</ele><time>2023-02-08T12:02:16Z</time></trkpt><trkpt lat="51.7549714912" lon="-2.0251941215"><ele>-85.66</ele><time>2023-02-08T12:02:34Z</time></trkpt><trkpt lat="51.7548983172" lon="-2.0251467638"><ele>-85.19</ele><time>2023-02-08T12:02:49Z</time></trkpt><trkpt lat="51.7548537254" lon="-2.0250306744"><ele>-86.17</ele><time>2023-02-08T12:03:09Z</time></trkpt><trkpt lat="51.7548419908" lon="-2.0250184368"><ele>-86.29</ele><time>2023-02-08T12:03:35Z</time></trkpt><trkpt lat="51.7548301723" lon="-2.0249922015"><ele>-87.94</ele><time>2023-02-08T12:03:56Z</time></trkpt><trkpt lat="51.7548279092" lon="-2.0249347854"><ele>-87.68</ele><time>2023-02-08T12:04:24Z</time></trkpt><trkpt lat="51.7548105586" lon="-2.0249700733"><ele>-87.43</ele><time>2023-02-08T12:04:47Z</time></trkpt><trkpt lat="51.7547407374" lon="-2.0249233022"><ele>-87.59</ele><time>2023-02-08T12:05:07Z</time></trkpt><trkpt lat="51.7545548268" lon="-2.0248415787"><ele>-86.87</ele><time>2023-02-08T12:05:29Z</time></trkpt><trkpt lat="51.7544460297" lon="-2.0247081388"><ele>-86.51</ele><time>2023-02-08T12:05:49Z</time></trkpt><trkpt lat="51.7543499731" lon="-2.0245409198"><ele>-86.09</ele><time>2023-02-08T12:06:10Z</time></trkpt><trkpt lat="51.7542059720" lon="-2.0243975054"><ele>-85.21</ele><time>2023-02-08T12:06:33Z</time></trkpt><trkpt lat="51.7541038804" lon="-2.0242240001"><ele>-83.69</ele><time>2023-02-08T12:06:56Z</time></trkpt><trkpt lat="51.7539959215" lon="-2.0241396781"><ele>-81.99</ele><time>2023-02-08T12:07:17Z</time></trkpt><trkpt lat="51.7539489828" lon="-2.0241090842"><ele>-80.40</ele><time>2023-02-08T12:07:34Z</time></trkpt><trkpt lat="51.7539053969" lon="-2.0240723714"><ele>-78.87</ele><time>2023-02-08T12:07:57Z</time></trkpt><trkpt lat="51.7539004516" lon="-2.0240770653"><ele>-77.87</ele><time>2023-02-08T12:08:18Z</time></trkpt><trkpt lat="51.7538435385" lon="-2.0240528416"><ele>-78.08</ele><time>2023-02-08T12:08:46Z</time></trkpt><trkpt lat="51.7538026348" lon="-2.0239954256"><ele>-77.92</ele><time>2023-02-08T12:09:10Z</time></trkpt><trkpt lat="51.7538435385" lon="-2.0240313001"><ele>-77.97</ele><time>2023-02-08T12:09:22Z</time></trkpt><trkpt lat="51.7538747191" lon="-2.0240384247"><ele>-79.00</ele><time>2023-02-08T12:09:29Z</time></trkpt><trkpt lat="51.7538825143" lon="-2.0240367483"><ele>-78.51</ele><time>2023-02-08T12:09:32Z</time></trkpt><trkpt lat="51.7538452987" lon="-2.0240345690"><ele>-76.53</ele><time>2023-02-08T12:09:54Z</time></trkpt><trkpt lat="51.7537901457" lon="-2.0239675976"><ele>-75.49</ele><time>2023-02-08T12:10:17Z</time></trkpt><trkpt lat="51.7537354119" lon="-2.0238350797"><ele>-75.35</ele><time>2023-02-08T12:10:40Z</time></trkpt><trkpt lat="51.7536991183" lon="-2.0236759074"><ele>-75.54</ele><time>2023-02-08T12:11:01Z</time></trkpt><trkpt lat="51.7536482401" lon="-2.0235106163"><ele>-74.70</ele><time>2023-02-08T12:11:24Z</time></trkpt><trkpt lat="51.7536074203" lon="-2.0233490970"><ele>-74.76</ele><time>2023-02-08T12:11:46Z</time></trkpt><trkpt lat="51.7535455618" lon="-2.0231694728"><ele>-74.88</ele><time>2023-02-08T12:12:10Z</time></trkpt><trkpt lat="51.7534614913" lon="-2.0229863282"><ele>-75.32</ele><time>2023-02-08T12:12:28Z</time></trkpt><trkpt lat="51.7534213420" lon="-2.0229066163"><ele>-74.94</ele><time>2023-02-08T12:12:48Z</time></trkpt><trkpt lat="51.7534083501" lon="-2.0228616893"><ele>-74.33</ele><time>2023-02-08T12:13:13Z</time></trkpt><trkpt lat="51.7533048335" lon="-2.0227938797"><ele>-75.32</ele><time>2023-02-08T12:13:32Z</time></trkpt><trkpt lat="51.7532258760" lon="-2.0227367990"><ele>-75.32</ele><time>2023-02-08T12:13:52Z</time></trkpt><trkpt lat="51.7531877384" lon="-2.0226290915"><ele>-75.32</ele><time>2023-02-08T12:14:11Z</time></trkpt><trkpt lat="51.7531267181" lon="-2.0224347152"><ele>-75.32</ele><time>2023-02-08T12:14:30Z</time></trkpt><trkpt lat="51.7531215213" lon="-2.0224050432"><ele>-77.85</ele><time>2023-02-08T12:14:33Z</time></trkpt><trkpt lat="51.7531026620" lon="-2.0221529994"><ele>-79.95</ele><time>2023-02-08T12:14:55Z</time></trkpt><trkpt lat="51.7530803662" lon="-2.0221031271"><ele>-79.74</ele><time>2023-02-08T12:15:12Z</time></trkpt><trkpt lat="51.7530693859" lon="-2.0220641512"><ele>-81.60</ele><time>2023-02-08T12:15:33Z</time></trkpt><trkpt lat="51.7530520353" lon="-2.0220145304"><ele>-82.94</ele><time>2023-02-08T12:15:56Z</time></trkpt><trkpt lat="51.7530191783" lon="-2.0219340641"><ele>-82.58</ele><time>2023-02-08T12:16:17Z</time></trkpt><trkpt lat="51.7529327609" lon="-2.0218670927"><ele>-85.76</ele><time>2023-02-08T12:16:30Z</time></trkpt><trkpt lat="51.7529312521" lon="-2.0218663383"><ele>-86.04</ele><time>2023-02-08T12:16:31Z</time></trkpt><trkpt lat="51.7529154941" lon="-2.0218644105"><ele>-81.82</ele><time>2023-02-08T12:16:34Z</time></trkpt><trkpt lat="51.7529122252" lon="-2.0218641590"><ele>-81.82</ele><time>2023-02-08T12:16:35Z</time></trkpt><trkpt lat="51.7527436651" lon="-2.0217572898"><ele>-81.82</ele><time>2023-02-08T12:16:55Z</time></trkpt><trkpt lat="51.7527301703" lon="-2.0217335690"><ele>-81.82</ele><time>2023-02-08T12:17:14Z</time></trkpt><trkpt lat="51.7527422402" lon="-2.0215332415"><ele>-81.82</ele><time>2023-02-08T12:17:29Z</time></trkpt><trkpt lat="51.7527328525" lon="-2.0214763284"><ele>-88.79</ele><time>2023-02-08T12:17:35Z</time></trkpt><trkpt lat="51.7527343612" lon="-2.0214682817"><ele>-88.79</ele><time>2023-02-08T12:17:36Z</time></trkpt><trkpt lat="51.7527077068" lon="-2.0211819559"><ele>-88.80</ele><time>2023-02-08T12:17:53Z</time></trkpt><trkpt lat="51.7526611034" lon="-2.0209593326"><ele>-89.13</ele><time>2023-02-08T12:18:10Z</time></trkpt><trkpt lat="51.7526265699" lon="-2.0207195263"><ele>-88.03</ele><time>2023-02-08T12:18:30Z</time></trkpt><trkpt lat="51.7526302580" lon="-2.0205646288"><ele>-87.34</ele><time>2023-02-08T12:18:45Z</time></trkpt><trkpt lat="51.7526539788" lon="-2.0204324462"><ele>-86.70</ele><time>2023-02-08T12:19:07Z</time></trkpt><trkpt lat="51.7525803857" lon="-2.0203032810"><ele>-86.66</ele><time>2023-02-08T12:19:26Z</time></trkpt><trkpt lat="51.7524563335" lon="-2.0201623812"><ele>-84.94</ele><time>2023-02-08T12:19:50Z</time></trkpt><trkpt lat="51.7523223907" lon="-2.0200920571"><ele>-83.56</ele><time>2023-02-08T12:20:11Z</time></trkpt><trkpt lat="51.7522012722" lon="-2.0199816674"><ele>-81.43</ele><time>2023-02-08T12:20:32Z</time></trkpt><trkpt lat="51.7520398367" lon="-2.0198295359"><ele>-78.93</ele><time>2023-02-08T12:21:01Z</time></trkpt><trkpt lat="51.7519403435" lon="-2.0196996164"><ele>-76.61</ele><time>2023-02-08T12:21:23Z</time></trkpt><trkpt lat="51.7519105878" lon="-2.0195940882"><ele>-74.37</ele><time>2023-02-08T12:21:46Z</time></trkpt><trkpt lat="51.7519036308" lon="-2.0194659289"><ele>-72.71</ele><time>2023-02-08T12:22:06Z</time></trkpt><trkpt lat="51.7518724501" lon="-2.0193937607"><ele>-71.59</ele><time>2023-02-08T12:22:23Z</time></trkpt><trkpt lat="51.7518027965" lon="-2.0191724785"><ele>-70.77</ele><time>2023-02-08T12:22:43Z</time></trkpt><trkpt lat="51.7517429497" lon="-2.0190153178"><ele>-70.09</ele><time>2023-02-08T12:23:03Z</time></trkpt><trkpt lat="51.7516266927" lon="-2.0187833067"><ele>-69.86</ele><time>2023-02-08T12:23:23Z</time></trkpt><trkpt lat="51.7515271157" lon="-2.0185833983"><ele>-70.26</ele><time>2023-02-08T12:23:42Z</time></trkpt><trkpt lat="51.7514131218" lon="-2.0183336176"><ele>-70.25</ele><time>2023-02-08T12:24:08Z</time></trkpt><trkpt lat="51.7514048237" lon="-2.0182911213"><ele>-70.12</ele><time>2023-02-08T12:24:11Z</time></trkpt><trkpt lat="51.7513438873" lon="-2.0180182066"><ele>-70.54</ele><time>2023-02-08T12:24:30Z</time></trkpt><trkpt lat="51.7512831185" lon="-2.0177248400"><ele>-70.54</ele><time>2023-02-08T12:24:53Z</time></trkpt><trkpt lat="51.7512210924" lon="-2.0175358281"><ele>-70.54</ele><time>2023-02-08T12:25:13Z</time></trkpt><trkpt lat="51.7511495110" lon="-2.0172484964"><ele>-70.54</ele><time>2023-02-08T12:25:33Z</time></trkpt><trkpt lat="51.7510692962" lon="-2.0169877354"><ele>-70.54</ele><time>2023-02-08T12:25:56Z</time></trkpt><trkpt lat="51.7510038335" lon="-2.0167247113"><ele>-70.54</ele><time>2023-02-08T12:26:16Z</time></trkpt><trkpt lat="51.7509491835" lon="-2.0165046025"><ele>-70.54</ele><time>2023-02-08T12:26:36Z</time></trkpt><trkpt lat="51.7509242054" lon="-2.0163940452"><ele>-67.71</ele><time>2023-02-08T12:26:45Z</time></trkpt><trkpt lat="51.7508770991" lon="-2.0161441807"><ele>-67.25</ele><time>2023-02-08T12:27:04Z</time></trkpt><trkpt lat="51.7508372851" lon="-2.0159157738"><ele>-66.46</ele><time>2023-02-08T12:27:27Z</time></trkpt><trkpt lat="51.7507939506" lon="-2.0156328846"><ele>-65.86</ele><time>2023-02-08T12:27:47Z</time></trkpt><trkpt lat="51.7507604230" lon="-2.0153729618"><ele>-65.24</ele><time>2023-02-08T12:28:09Z</time></trkpt><trkpt lat="51.7507015821" lon="-2.0150645915"><ele>-65.10</ele><time>2023-02-08T12:28:29Z</time></trkpt><trkpt lat="51.7506564036" lon="-2.0148971211"><ele>-65.36</ele><time>2023-02-08T12:28:46Z</time></trkpt><trkpt lat="51.7505740095" lon="-2.0147300698"><ele>-65.61</ele><time>2023-02-08T12:29:06Z</time></trkpt><trkpt lat="51.7504260689" lon="-2.0145019144"><ele>-65.61</ele><time>2023-02-08T12:29:30Z</time></trkpt><trkpt lat="51.7502760328" lon="-2.0143656246"><ele>-64.34</ele><time>2023-02-08T12:29:52Z</time></trkpt><trkpt lat="51.7501549143" lon="-2.0141483657"><ele>-64.50</ele><time>2023-02-08T12:30:12Z</time></trkpt><trkpt lat="51.7500998452" lon="-2.0140288398"><ele>-64.68</ele><time>2023-02-08T12:30:33Z</time></trkpt><trkpt lat="51.7501041200" lon="-2.0139962342"><ele>-64.33</ele><time>2023-02-08T12:31:00Z</time></trkpt><trkpt lat="51.7500821594" lon="-2.0139766205"><ele>-64.36</ele><time>2023-02-08T12:31:27Z</time></trkpt><trkpt lat="51.7499493062" lon="-2.0138050430"><ele>-65.66</ele><time>2023-02-08T12:31:47Z</time></trkpt><trkpt lat="51.7498320434" lon="-2.0137006883"><ele>-63.03</ele><time>2023-02-08T12:32:11Z</time></trkpt><trkpt lat="51.7497989349" lon="-2.0136648137"><ele>-64.67</ele><time>2023-02-08T12:32:17Z</time></trkpt><trkpt lat="51.7496322189" lon="-2.0135285240"><ele>-66.33</ele><time>2023-02-08T12:32:38Z</time></trkpt><trkpt lat="51.7495099269" lon="-2.0134495664"><ele>-66.93</ele><time>2023-02-08T12:32:56Z</time></trkpt><trkpt lat="51.7493674345" lon="-2.0133596286"><ele>-68.10</ele><time>2023-02-08T12:33:16Z</time></trkpt><trkpt lat="51.7491587251" lon="-2.0133002009"><ele>-69.17</ele><time>2023-02-08T12:33:42Z</time></trkpt><trkpt lat="51.7490114551" lon="-2.0132975187"><ele>-70.91</ele><time>2023-02-08T12:34:03Z</time></trkpt><trkpt lat="51.7488511093" lon="-2.0132727921"><ele>-71.99</ele><time>2023-02-08T12:34:22Z</time></trkpt><trkpt lat="51.7487097904" lon="-2.0133418590"><ele>-74.10</ele><time>2023-02-08T12:34:43Z</time></trkpt><trkpt lat="51.7485509533" lon="-2.0133727882"><ele>-75.97</ele><time>2023-02-08T12:35:04Z</time></trkpt><trkpt lat="51.7484382167" lon="-2.0134841837"><ele>-77.77</ele><time>2023-02-08T12:35:23Z</time></trkpt><trkpt lat="51.7483293358" lon="-2.0135195553"><ele>-80.50</ele><time>2023-02-08T12:35:42Z</time></trkpt><trkpt lat="51.7482145876" lon="-2.0135910530"><ele>-82.51</ele><time>2023-02-08T12:36:03Z</time></trkpt><trkpt lat="51.7481523100" lon="-2.0136277657"><ele>-85.55</ele><time>2023-02-08T12:36:17Z</time></trkpt><trkpt lat="51.7481119093" lon="-2.0136107504"><ele>-84.68</ele><time>2023-02-08T12:36:37Z</time></trkpt><trkpt lat="51.7480653897" lon="-2.0136136003"><ele>-85.79</ele><time>2023-02-08T12:37:00Z</time></trkpt><trkpt lat="51.7478846759" lon="-2.0136126783"><ele>-87.40</ele><time>2023-02-08T12:37:21Z</time></trkpt><trkpt lat="51.7477182951" lon="-2.0135943219"><ele>-88.83</ele><time>2023-02-08T12:37:40Z</time></trkpt><trkpt lat="51.7475420237" lon="-2.0135666616"><ele>-90.04</ele><time>2023-02-08T12:37:57Z</time></trkpt><trkpt lat="51.7473953404" lon="-2.0136060566"><ele>-91.24</ele><time>2023-02-08T12:38:15Z</time></trkpt><trkpt lat="51.7472209129" lon="-2.0137650613"><ele>-91.99</ele><time>2023-02-08T12:38:36Z</time></trkpt><trkpt lat="51.7471145466" lon="-2.0139660593"><ele>-92.55</ele><time>2023-02-08T12:38:56Z</time></trkpt><trkpt lat="51.7469939310" lon="-2.0141932927"><ele>-92.69</ele><time>2023-02-08T12:39:16Z</time></trkpt><trkpt lat="51.7469438910" lon="-2.0144468453"><ele>-92.48</ele><time>2023-02-08T12:39:35Z</time></trkpt><trkpt lat="51.7469224334" lon="-2.0147454925"><ele>-91.59</ele><time>2023-02-08T12:39:57Z</time></trkpt><trkpt lat="51.7468942702" lon="-2.0147945266"><ele>-89.52</ele><time>2023-02-08T12:40:16Z</time></trkpt><trkpt lat="51.7468852177" lon="-2.0148076024"><ele>-88.59</ele><time>2023-02-08T12:40:40Z</time></trkpt><trkpt lat="51.7468340043" lon="-2.0148013998"><ele>-89.35</ele><time>2023-02-08T12:41:02Z</time></trkpt><trkpt lat="51.7467589863" lon="-2.0147314109"><ele>-89.52</ele><time>2023-02-08T12:41:26Z</time></trkpt><trkpt lat="51.7466472555" lon="-2.0146182552"><ele>-88.35</ele><time>2023-02-08T12:41:50Z</time></trkpt><trkpt lat="51.7465154920" lon="-2.0144357812"><ele>-85.62</ele><time>2023-02-08T12:42:18Z</time></trkpt><trkpt lat="51.7464786116" lon="-2.0143550634"><ele>-85.01</ele><time>2023-02-08T12:42:46Z</time></trkpt><trkpt lat="51.7463849019" lon="-2.0142893493"><ele>-84.98</ele><time>2023-02-08T12:43:06Z</time></trkpt><trkpt lat="51.7462930363" lon="-2.0141760260"><ele>-84.19</ele><time>2023-02-08T12:43:28Z</time></trkpt><trkpt lat="51.7461699899" lon="-2.0140352938"><ele>-82.99</ele><time>2023-02-08T12:43:50Z</time></trkpt><trkpt lat="51.7461331934" lon="-2.0139261615"><ele>-82.96</ele><time>2023-02-08T12:44:08Z</time></trkpt><trkpt lat="51.7460489552" lon="-2.0138342958"><ele>-82.95</ele><time>2023-02-08T12:44:30Z</time></trkpt><trkpt lat="51.7459445167" lon="-2.0137246605"><ele>-82.94</ele><time>2023-02-08T12:44:59Z</time></trkpt><trkpt lat="51.7458239011" lon="-2.0135299489"><ele>-83.62</ele><time>2023-02-08T12:45:26Z</time></trkpt><trkpt lat="51.7456616275" lon="-2.0133806672"><ele>-83.95</ele><time>2023-02-08T12:45:50Z</time></trkpt><trkpt lat="51.7455539200" lon="-2.0132501610"><ele>-84.76</ele><time>2023-02-08T12:46:14Z</time></trkpt><trkpt lat="51.7454764713" lon="-2.0131648332"><ele>-86.05</ele><time>2023-02-08T12:46:41Z</time></trkpt><trkpt lat="51.7454532534" lon="-2.0131406095"><ele>-86.38</ele><time>2023-02-08T12:47:09Z</time></trkpt><trkpt lat="51.7454409320" lon="-2.0131033100"><ele>-86.98</ele><time>2023-02-08T12:47:36Z</time></trkpt><trkpt lat="51.7454055604" lon="-2.0130084269"><ele>-88.30</ele><time>2023-02-08T12:47:57Z</time></trkpt><trkpt lat="51.7453795765" lon="-2.0130027272"><ele>-86.76</ele><time>2023-02-08T12:48:19Z</time></trkpt><trkpt lat="51.7453172989" lon="-2.0129182376"><ele>-86.07</ele><time>2023-02-08T12:48:37Z</time></trkpt><trkpt lat="51.7451888882" lon="-2.0127966162"><ele>-85.38</ele><time>2023-02-08T12:48:59Z</time></trkpt><trkpt lat="51.7451269459" lon="-2.0127392840"><ele>-85.00</ele><time>2023-02-08T12:49:21Z</time></trkpt><trkpt lat="51.7450926639" lon="-2.0127091091"><ele>-84.76</ele><time>2023-02-08T12:49:42Z</time></trkpt><trkpt lat="51.7449059151" lon="-2.0125780161"><ele>-84.79</ele><time>2023-02-08T12:50:01Z</time></trkpt><trkpt lat="51.7447909992" lon="-2.0124921855"><ele>-84.33</ele><time>2023-02-08T12:50:15Z</time></trkpt><trkpt lat="51.7447718047" lon="-2.0124817919"><ele>-84.39</ele><time>2023-02-08T12:50:17Z</time></trkpt><trkpt lat="51.7446041666" lon="-2.0123955421"><ele>-84.71</ele><time>2023-02-08T12:50:36Z</time></trkpt><trkpt lat="51.7445631791" lon="-2.0123948716"><ele>-85.32</ele><time>2023-02-08T12:50:55Z</time></trkpt><trkpt lat="51.7444768455" lon="-2.0123593323"><ele>-84.41</ele><time>2023-02-08T12:51:10Z</time></trkpt><trkpt lat="51.7443947867" lon="-2.0122838952"><ele>-84.82</ele><time>2023-02-08T12:51:27Z</time></trkpt><trkpt lat="51.7443885002" lon="-2.0122616831"><ele>-84.11</ele><time>2023-02-08T12:51:48Z</time></trkpt><trkpt lat="51.7443256360" lon="-2.0122508705"><ele>-84.48</ele><time>2023-02-08T12:52:08Z</time></trkpt><trkpt lat="51.7442453373" lon="-2.0121074561"><ele>-86.10</ele><time>2023-02-08T12:52:30Z</time></trkpt><trkpt lat="51.7442698125" lon="-2.0120999124"><ele>-84.16</ele><time>2023-02-08T12:52:48Z</time></trkpt><trkpt lat="51.7442289088" lon="-2.0120347850"><ele>-88.17</ele><time>2023-02-08T12:53:04Z</time></trkpt><trkpt lat="51.7442000750" lon="-2.0119903609"><ele>-84.25</ele><time>2023-02-08T12:53:10Z</time></trkpt><trkpt lat="51.7441888433" lon="-2.0119523071"><ele>-85.24</ele><time>2023-02-08T12:53:18Z</time></trkpt><trkpt lat="51.7441792879" lon="-2.0117853396"><ele>-87.23</ele><time>2023-02-08T12:53:38Z</time></trkpt><trkpt lat="51.7440357059" lon="-2.0117359702"><ele>-87.60</ele><time>2023-02-08T12:53:58Z</time></trkpt><trkpt lat="51.7440154217" lon="-2.0117264986"><ele>-87.51</ele><time>2023-02-08T12:54:00Z</time></trkpt><trkpt lat="51.7438578419" lon="-2.0116163604"><ele>-86.86</ele><time>2023-02-08T12:54:21Z</time></trkpt><trkpt lat="51.7437742744" lon="-2.0115396660"><ele>-86.06</ele><time>2023-02-08T12:54:39Z</time></trkpt><trkpt lat="51.7436503060" lon="-2.0114768017"><ele>-85.37</ele><time>2023-02-08T12:55:03Z</time></trkpt><trkpt lat="51.7436433490" lon="-2.0114734489"><ele>-85.02</ele><time>2023-02-08T12:55:26Z</time></trkpt><trkpt lat="51.7436457798" lon="-2.0114670787"><ele>-85.27</ele><time>2023-02-08T12:55:27Z</time></trkpt><trkpt lat="51.7436175328" lon="-2.0114242472"><ele>-87.19</ele><time>2023-02-08T12:55:33Z</time></trkpt><trkpt lat="51.7436019424" lon="-2.0113554318"><ele>-82.84</ele><time>2023-02-08T12:55:37Z</time></trkpt><trkpt lat="51.7434915528" lon="-2.0112948306"><ele>-82.08</ele><time>2023-02-08T12:55:58Z</time></trkpt><trkpt lat="51.7433723621" lon="-2.0111719519"><ele>-80.96</ele><time>2023-02-08T12:56:19Z</time></trkpt><trkpt lat="51.7433066480" lon="-2.0110743027"><ele>-80.99</ele><time>2023-02-08T12:56:37Z</time></trkpt><trkpt lat="51.7432062328" lon="-2.0109358337"><ele>-79.86</ele><time>2023-02-08T12:56:54Z</time></trkpt><trkpt lat="51.7431204859" lon="-2.0107811037"><ele>-79.46</ele><time>2023-02-08T12:57:11Z</time></trkpt><trkpt lat="51.7430256866" lon="-2.0105930138"><ele>-79.55</ele><time>2023-02-08T12:57:33Z</time></trkpt><trkpt lat="51.7429191526" lon="-2.0104371943"><ele>-79.40</ele><time>2023-02-08T12:57:54Z</time></trkpt><trkpt lat="51.7428477388" lon="-2.0103132259"><ele>-79.71</ele><time>2023-02-08T12:58:08Z</time></trkpt><trkpt lat="51.7427696194" lon="-2.0101374574"><ele>-80.15</ele><time>2023-02-08T12:58:31Z</time></trkpt><trkpt lat="51.7426528595" lon="-2.0099156722"><ele>-80.09</ele><time>2023-02-08T12:58:51Z</time></trkpt><trkpt lat="51.7425205931" lon="-2.0097377244"><ele>-80.77</ele><time>2023-02-08T12:59:11Z</time></trkpt><trkpt lat="51.7423977982" lon="-2.0095246565"><ele>-81.51</ele><time>2023-02-08T12:59:29Z</time></trkpt><trkpt lat="51.7422828823" lon="-2.0093262568"><ele>-81.93</ele><time>2023-02-08T12:59:47Z</time></trkpt><trkpt lat="51.7421738338" lon="-2.0091627259"><ele>-82.48</ele><time>2023-02-08T13:00:04Z</time></trkpt><trkpt lat="51.7420476023" lon="-2.0089500770"><ele>-82.14</ele><time>2023-02-08T13:00:25Z</time></trkpt><trkpt lat="51.7419077083" lon="-2.0087228436"><ele>-82.84</ele><time>2023-02-08T13:00:47Z</time></trkpt><trkpt lat="51.7417822313" lon="-2.0085462369"><ele>-83.08</ele><time>2023-02-08T13:01:07Z</time></trkpt><trkpt lat="51.7417631205" lon="-2.0085139666"><ele>-83.46</ele><time>2023-02-08T13:01:30Z</time></trkpt><trkpt lat="51.7417124100" lon="-2.0084758289"><ele>-83.43</ele><time>2023-02-08T13:01:52Z</time></trkpt><trkpt lat="51.7415794730" lon="-2.0082434826"><ele>-83.89</ele><time>2023-02-08T13:02:14Z</time></trkpt><trkpt lat="51.7415205482" lon="-2.0081160776"><ele>-84.61</ele><time>2023-02-08T13:02:32Z</time></trkpt><trkpt lat="51.7413882818" lon="-2.0079076197"><ele>-84.45</ele><time>2023-02-08T13:02:52Z</time></trkpt><trkpt lat="51.7413213942" lon="-2.0077973977"><ele>-84.72</ele><time>2023-02-08T13:03:08Z</time></trkpt><trkpt lat="51.7413303629" lon="-2.0076379739"><ele>-85.73</ele><time>2023-02-08T13:03:27Z</time></trkpt><trkpt lat="51.7414179537" lon="-2.0075013489"><ele>-87.08</ele><time>2023-02-08T13:03:50Z</time></trkpt><trkpt lat="51.7415329535" lon="-2.0073978323"><ele>-87.69</ele><time>2023-02-08T13:04:10Z</time></trkpt><trkpt lat="51.7416692432" lon="-2.0072275121"><ele>-89.27</ele><time>2023-02-08T13:04:36Z</time></trkpt><trkpt lat="51.7418139149" lon="-2.0070253406"><ele>-91.27</ele><time>2023-02-08T13:05:02Z</time></trkpt><trkpt lat="51.7419310100" lon="-2.0069195610"><ele>-92.84</ele><time>2023-02-08T13:05:18Z</time></trkpt><trkpt lat="51.7420109734" lon="-2.0067303814"><ele>-93.35</ele><time>2023-02-08T13:05:34Z</time></trkpt><trkpt lat="51.7420755140" lon="-2.0067245141"><ele>-96.09</ele><time>2023-02-08T13:05:54Z</time></trkpt><trkpt lat="51.7420812976" lon="-2.0067307167"><ele>-98.34</ele><time>2023-02-08T13:05:56Z</time></trkpt><trkpt lat="51.7420979775" lon="-2.0067342371"><ele>-94.48</ele><time>2023-02-08T13:06:01Z</time></trkpt><trkpt lat="51.7420998216" lon="-2.0067319740"><ele>-91.16</ele><time>2023-02-08T13:06:05Z</time></trkpt><trkpt lat="51.7420927808" lon="-2.0067309681"><ele>-91.09</ele><time>2023-02-08T13:06:09Z</time></trkpt></trkseg></trk></gpx>